Time;durP1;ratioP1;P1;durP2;ratioP2;P2;SDS_P1;SDS_P2;PMS_P1;PMS_P2;Temp;Humidity;BMP_temperature;BMP_pressure;BME280_temperature;BME280_humidity;BME280_pressure;Samples;Min_cycle;Max_cycle;Signal;HPM_P1;HPM_P2
2021/03/05 00:01:54;;;;;;;5.97;2.65;;;21.60;32.20;;;;;;4992574;28;20887;-65
2021/03/05 00:04:19;;;;;;;4.93;2.70;;;21.60;32.20;;;;;;4992940;28;20427;-65
2021/03/05 00:06:45;;;;;;;5.70;2.70;;;21.60;32.10;;;;;;4975399;28;20854;-65
2021/03/05 00:09:11;;;;;;;6.18;2.70;;;21.60;32.30;;;;;;4973553;28;20410;-65
2021/03/05 00:11:36;;;;;;;7.40;2.78;;;21.60;32.30;;;;;;4973671;28;20773;-65
2021/03/05 00:14:02;;;;;;;5.50;2.70;;;21.50;32.10;;;;;;4972809;28;20407;-65
2021/03/05 00:16:28;;;;;;;6.07;2.95;;;21.60;32.40;;;;;;4973355;28;20492;-66
2021/03/05 00:18:53;;;;;;;5.60;2.80;;;21.50;32.30;;;;;;4973284;28;20395;-66
2021/03/05 00:21:19;;;;;;;5.78;2.60;;;21.50;32.10;;;;;;4977644;28;20461;-66
2021/03/05 00:23:45;;;;;;;4.57;2.50;;;21.50;32.20;;;;;;4978777;28;20407;-66
2021/03/05 00:26:10;;;;;;;6.03;2.42;;;21.50;32.20;;;;;;4972630;28;20974;-66
2021/03/05 00:28:36;;;;;;;6.20;2.70;;;21.50;32.20;;;;;;4972901;28;20455;-65
2021/03/05 00:31:02;;;;;;;4.57;2.70;;;21.50;32.20;;;;;;4974087;28;20507;-66
2021/03/05 00:33:27;;;;;;;6.23;2.67;;;21.50;32.20;;;;;;4978861;28;20407;-66
2021/03/05 00:35:53;;;;;;;5.13;2.65;;;21.50;32.30;;;;;;4992134;28;20463;-66
2021/03/05 00:38:20;;;;;;;4.28;2.50;;;21.50;32.30;;;;;;4992367;28;20390;-65
2021/03/05 00:40:45;;;;;;;5.10;2.40;;;21.50;32.30;;;;;;4992280;28;20469;-65
2021/03/05 00:43:11;;;;;;;6.28;2.58;;;21.40;32.30;;;;;;4992164;28;20870;-65
2021/03/05 00:45:37;;;;;;;5.10;2.50;;;21.40;32.90;;;;;;4992357;28;20787;-65
2021/03/05 00:48:02;;;;;;;5.03;2.42;;;21.50;32.30;;;;;;4991766;28;20445;-64
2021/03/05 00:50:28;;;;;;;5.17;2.20;;;21.50;32.30;;;;;;4992202;28;20439;-64
2021/03/05 00:52:54;;;;;;;4.82;2.28;;;21.50;32.30;;;;;;4991772;28;20406;-65
2021/03/05 00:55:19;;;;;;;4.50;2.20;;;21.50;32.30;;;;;;4992135;28;20394;-65
2021/03/05 00:57:45;;;;;;;4.55;2.20;;;21.50;32.30;;;;;;4992141;28;20446;-65
2021/03/05 01:00:14;;;;;;;4.47;2.13;;;21.50;32.30;;;;;;4990389;28;20422;-65
2021/03/05 01:02:40;;;;;;;4.72;2.13;;;21.40;32.20;;;;;;4977474;28;20431;-65
2021/03/05 01:05:06;;;;;;;4.68;1.90;;;21.40;32.20;;;;;;4980923;28;20426;-64
2021/03/05 01:07:32;;;;;;;3.78;2.10;;;21.40;32.20;;;;;;4992013;28;20394;-65
2021/03/05 01:09:58;;;;;;;4.07;2.20;;;21.40;32.30;;;;;;4991695;28;20456;-65
2021/03/05 01:12:24;;;;;;;3.20;1.90;;;21.50;32.30;;;;;;4986910;28;20593;-65
2021/03/05 01:14:50;;;;;;;4.18;2.08;;;21.40;32.30;;;;;;4992060;28;20421;-65
2021/03/05 01:17:15;;;;;;;3.20;1.95;;;21.40;32.40;;;;;;4991763;28;20398;-66
2021/03/05 01:19:41;;;;;;;4.03;2.00;;;21.40;32.40;;;;;;4985508;28;20416;-65
2021/03/05 01:22:07;;;;;;;3.10;1.70;;;21.40;32.50;;;;;;4971745;28;20392;-65
2021/03/05 01:24:33;;;;;;;3.47;1.93;;;21.40;32.50;;;;;;4973532;28;20420;-65
2021/03/05 01:26:59;;;;;;;4.18;2.10;;;21.40;32.50;;;;;;4971319;28;20452;-65
2021/03/05 01:29:24;;;;;;;3.50;2.00;;;21.40;32.40;;;;;;4972584;28;20392;-65
2021/03/05 01:31:50;;;;;;;3.28;1.77;;;21.40;32.40;;;;;;4972443;28;20831;-65
2021/03/05 01:34:16;;;;;;;3.03;1.70;;;21.40;32.40;;;;;;4987508;28;20406;-65
2021/03/05 01:36:42;;;;;;;3.67;1.70;;;21.40;32.50;;;;;;4991237;28;20395;-65
2021/03/05 01:39:08;;;;;;;3.70;1.70;;;21.40;32.40;;;;;;4991707;28;20442;-65
2021/03/05 01:41:34;;;;;;;3.33;1.67;;;21.40;32.30;;;;;;4991122;28;20478;-66
2021/03/05 01:44:00;;;;;;;3.63;1.75;;;21.30;32.40;;;;;;4991327;28;20863;-65
2021/03/05 01:46:29;;;;;;;3.00;1.73;;;21.30;32.40;;;;;;4991717;28;20426;-65
2021/03/05 01:48:55;;;;;;;3.45;1.70;;;21.30;32.40;;;;;;4990390;28;20453;-66
2021/03/05 01:51:23;;;;;;;3.03;1.40;;;21.30;32.40;;;;;;4990304;28;20945;-65
2021/03/05 01:53:49;;;;;;;2.90;1.50;;;21.30;32.50;;;;;;5006851;28;20391;-65
2021/03/05 01:56:41;;;;;;;3.57;1.60;;;21.30;32.30;;;;;;4991248;28;20406;-65
2021/03/05 01:59:12;;;;;;;3.63;1.50;;;21.30;32.40;;;;;;4984969;28;20921;-65
2021/03/05 02:01:38;;;;;;;2.78;1.58;;;21.30;32.40;;;;;;4989809;28;20429;-65
2021/03/05 02:04:12;;;;;;;3.38;1.50;;;21.30;32.40;;;;;;4991184;28;20390;-66
2021/03/05 02:06:38;;;;;;;3.05;1.63;;;21.30;32.40;;;;;;4991495;28;20406;-66
2021/03/05 02:09:06;;;;;;;3.33;1.77;;;21.30;32.30;;;;;;4991271;28;20421;-66
2021/03/05 02:11:32;;;;;;;3.00;1.60;;;21.30;32.30;;;;;;4991226;28;20414;-64
2021/03/05 02:14:00;;;;;;;2.83;1.50;;;21.40;32.30;;;;;;4991771;28;20423;-65
2021/03/05 02:16:39;;;;;;;2.80;1.58;;;21.30;32.30;;;;;;4993834;28;20773;-64
2021/03/05 02:19:42;;;;;;;3.08;1.40;;;21.30;32.20;;;;;;4993708;28;20884;-65
2021/03/05 02:22:27;;;;;;;2.55;1.50;;;21.30;32.20;;;;;;4994553;28;20901;-65
2021/03/05 02:25:25;;;;;;;2.80;1.50;;;21.30;32.30;;;;;;4993570;28;20925;-65
2021/03/05 02:28:28;;;;;;;2.88;1.60;;;21.30;32.30;;;;;;4950981;28;20441;-65
2021/03/05 02:31:32;;;;;;;2.60;1.50;;;21.30;32.30;;;;;;4994772;28;20886;-65
2021/03/05 02:34:10;;;;;;;2.78;1.55;;;21.30;32.30;;;;;;4992287;28;20410;-65
2021/03/05 02:36:58;;;;;;;2.53;1.50;;;21.30;32.30;;;;;;4993615;28;20398;-65
2021/03/05 02:39:55;;;;;;;3.28;1.52;;;21.30;32.20;;;;;;4975150;28;20395;-65
2021/03/05 02:42:51;;;;;;;2.65;1.52;;;21.30;32.30;;;;;;4954586;28;20401;-65
2021/03/05 02:45:29;;;;;;;3.08;1.30;;;21.30;32.30;;;;;;4973788;28;20426;-65
2021/03/05 02:48:03;;;;;;;3.25;1.60;;;21.30;32.20;;;;;;4975005;28;20876;-64
2021/03/05 02:50:32;;;;;;;2.58;1.40;;;21.20;32.20;;;;;;4974358;28;20387;-65
2021/03/05 02:53:02;;;;;;;2.40;1.50;;;21.30;32.20;;;;;;4974796;28;20471;-65
2021/03/05 02:55:29;;;;;;;2.38;1.40;;;21.30;32.20;;;;;;4974712;28;20932;-65
2021/03/05 02:57:58;;;;;;;2.45;1.10;;;21.30;32.20;;;;;;4986059;28;20449;-65
2021/03/05 03:00:26;;;;;;;2.40;1.30;;;21.30;32.20;;;;;;4993922;28;20469;-65
2021/03/05 03:02:55;;;;;;;2.38;1.40;;;21.30;32.20;;;;;;4994100;28;20402;-65
2021/03/05 03:05:23;;;;;;;2.15;1.20;;;21.30;32.20;;;;;;4993657;28;20467;-65
2021/03/05 03:07:49;;;;;;;2.35;1.30;;;21.20;32.20;;;;;;4992434;28;20395;-65
2021/03/05 03:10:16;;;;;;;2.65;1.30;;;21.20;32.20;;;;;;4993874;28;20487;-65
2021/03/05 03:12:44;;;;;;;2.50;1.30;;;21.20;32.10;;;;;;4993810;28;20402;-65
2021/03/05 03:15:11;;;;;;;2.05;1.15;;;21.20;32.20;;;;;;4993662;28;20909;-65
2021/03/05 03:17:44;;;;;;;2.78;1.23;;;21.20;32.10;;;;;;4993822;28;20387;-66
2021/03/05 03:20:13;;;;;;;2.03;1.30;;;21.20;32.20;;;;;;4993468;28;20401;-66
2021/03/05 03:22:39;;;;;;;2.03;1.10;;;21.20;32.20;;;;;;4993762;28;20390;-65
2021/03/05 03:25:06;;;;;;;3.00;1.40;;;21.20;32.20;;;;;;4989566;28;20435;-65
2021/03/05 03:27:31;;;;;;;2.27;1.13;;;21.20;32.10;;;;;;4974251;28;20496;-65
2021/03/05 03:29:58;;;;;;;2.35;1.40;;;21.20;32.10;;;;;;4974105;28;20400;-65
2021/03/05 03:32:24;;;;;;;1.60;1.00;;;21.20;32.10;;;;;;4986422;28;20402;-65
2021/03/05 03:34:50;;;;;;;1.90;1.10;;;21.20;32.00;;;;;;4993119;28;20410;-65
2021/03/05 03:37:18;;;;;;;1.73;1.20;;;21.20;32.00;;;;;;4993613;28;20398;-65
2021/03/05 03:39:44;;;;;;;2.05;1.10;;;21.20;32.10;;;;;;4993502;28;20477;-66
2021/03/05 03:42:10;;;;;;;2.17;1.20;;;21.20;32.10;;;;;;4993026;28;20402;-66
2021/03/05 03:44:35;;;;;;;1.90;1.00;;;21.20;32.20;;;;;;4993392;28;20743;-65
2021/03/05 03:47:01;;;;;;;1.53;1.00;;;21.20;32.20;;;;;;4991203;28;20521;-65
2021/03/05 03:49:43;;;;;;;2.03;1.10;;;21.20;32.20;;;;;;4993166;28;20398;-65
2021/03/05 03:52:38;;;;;;;2.63;1.20;;;21.20;32.10;;;;;;4993093;28;20418;-65
2021/03/05 03:55:07;;;;;;;1.80;1.00;;;21.20;32.10;;;;;;4986040;28;20443;-65
2021/03/05 03:57:39;;;;;;;1.67;1.00;;;21.20;32.10;;;;;;4981674;28;20404;-65
2021/03/05 04:00:06;;;;;;;2.05;0.93;;;21.20;32.10;;;;;;4975752;28;20404;-64
2021/03/05 04:02:33;;;;;;;2.53;1.15;;;21.20;32.10;;;;;;4975451;28;20402;-64
2021/03/05 04:05:06;;;;;;;1.77;1.00;;;21.20;32.10;;;;;;4992726;28;20421;-64
2021/03/05 04:07:33;;;;;;;2.33;1.10;;;21.10;31.90;;;;;;4979268;28;20408;-64
2021/03/05 04:10:01;;;;;;;2.30;0.98;;;21.10;32.40;;;;;;4982762;28;20497;-63
2021/03/05 04:12:28;;;;;;;2.25;1.00;;;21.20;32.50;;;;;;4981636;28;20483;-65
2021/03/05 04:14:55;;;;;;;2.40;1.00;;;21.20;32.50;;;;;;4981051;28;20545;-64
2021/03/05 04:17:21;;;;;;;3.10;1.27;;;21.20;32.40;;;;;;4993070;28;20391;-64
2021/03/05 04:19:48;;;;;;;1.90;1.17;;;21.30;33.50;;;;;;4984604;28;20452;-65
2021/03/05 04:22:15;;;;;;;3.00;0.90;;;21.40;32.90;;;;;;4979470;28;20398;-65
2021/03/05 04:24:41;;;;;;;8.10;1.50;;;21.40;33.50;;;;;;4989433;28;20467;-65
2021/03/05 04:27:08;;;;;;;4.55;1.10;;;21.50;34.90;;;;;;4984048;28;20414;-65
2021/03/05 04:29:34;;;;;;;4.38;1.20;;;21.50;35.30;;;;;;4991929;28;20403;-65
2021/03/05 04:32:00;;;;;;;3.33;1.30;;;21.60;35.50;;;;;;4992634;28;20394;-65
2021/03/05 04:34:25;;;;;;;3.78;1.10;;;21.60;35.50;;;;;;4978953;28;20815;-65
2021/03/05 04:36:51;;;;;;;3.67;1.03;;;21.60;35.00;;;;;;4985049;28;20407;-65
2021/03/05 04:39:17;;;;;;;6.85;1.35;;;21.60;34.80;;;;;;4992519;28;20405;-65
2021/03/05 04:41:42;;;;;;;7.90;1.37;;;21.70;35.30;;;;;;4992212;28;20893;-65
2021/03/05 04:44:08;;;;;;;5.32;1.02;;;21.70;36.00;;;;;;4992327;28;20946;-64
2021/03/05 04:46:34;;;;;;;7.37;1.17;;;21.70;35.70;;;;;;4991530;28;20398;-66
2021/03/05 04:48:59;;;;;;;3.65;1.00;;;21.70;35.80;;;;;;4991929;28;20420;-65
2021/03/05 04:51:25;;;;;;;5.40;1.20;;;21.70;35.70;;;;;;4992149;28;20760;-65
2021/03/05 04:53:51;;;;;;;5.53;1.17;;;21.70;35.50;;;;;;4992249;28;20456;-65
2021/03/05 04:56:16;;;;;;;3.53;1.00;;;21.70;35.00;;;;;;4991200;28;20410;-65
2021/03/05 04:58:42;;;;;;;5.10;1.17;;;21.70;35.60;;;;;;4980924;28;20408;-65
2021/03/05 05:01:08;;;;;;;11.65;1.40;;;21.70;35.30;;;;;;4986320;28;20457;-65
2021/03/05 05:03:33;;;;;;;3.60;1.10;;;21.60;35.20;;;;;;4992098;28;20482;-65
2021/03/05 05:05:59;;;;;;;2.33;0.90;;;21.60;35.00;;;;;;4992027;28;20786;-65
2021/03/05 05:08:24;;;;;;;4.40;1.00;;;21.60;34.40;;;;;;4988368;28;20833;-65
2021/03/05 05:10:50;;;;;;;3.58;1.00;;;21.60;35.20;;;;;;4972680;28;20396;-65
2021/03/05 05:13:16;;;;;;;4.33;1.00;;;21.50;34.60;;;;;;4972502;28;20427;-65
2021/03/05 05:15:41;;;;;;;2.20;0.82;;;21.50;34.40;;;;;;4972560;28;20404;-64
2021/03/05 05:18:07;;;;;;;3.03;0.80;;;21.50;33.90;;;;;;4972353;28;20397;-64
2021/03/05 05:20:33;;;;;;;2.47;1.13;;;21.50;33.90;;;;;;4971523;28;20404;-65
2021/03/05 05:22:59;;;;;;;3.05;0.90;;;21.50;33.50;;;;;;4972082;28;20385;-65
2021/03/05 05:25:25;;;;;;;2.60;0.90;;;21.50;33.40;;;;;;4972187;28;20912;-64
2021/03/05 05:27:50;;;;;;;5.63;1.10;;;21.50;33.10;;;;;;4972252;28;20403;-64
2021/03/05 05:30:16;;;;;;;7.55;1.08;;;21.50;33.20;;;;;;4970791;28;20401;-63
2021/03/05 05:32:42;;;;;;;6.40;1.00;;;21.50;33.00;;;;;;4979041;28;20782;-64
2021/03/05 05:35:09;;;;;;;5.27;1.00;;;21.40;33.20;;;;;;4972520;28;20404;-64
2021/03/05 05:37:34;;;;;;;7.50;1.17;;;21.30;33.00;;;;;;4990577;28;20386;-64
2021/03/05 05:40:00;;;;;;;5.23;1.30;;;21.30;33.00;;;;;;4991893;28;20397;-64
2021/03/05 05:42:26;;;;;;;4.90;1.10;;;21.30;33.20;;;;;;4991376;28;20387;-65
2021/03/05 05:44:52;;;;;;;4.43;1.20;;;21.30;33.20;;;;;;4988448;28;20420;-63
2021/03/05 05:47:19;;;;;;;4.32;0.90;;;21.30;33.00;;;;;;4982973;28;20441;-62
2021/03/05 05:49:45;;;;;;;4.05;1.00;;;21.30;33.00;;;;;;4982356;28;20905;-64
2021/03/05 05:52:14;;;;;;;4.68;1.10;;;21.30;33.00;;;;;;4980418;28;20548;-62
2021/03/05 05:54:44;;;;;;;4.78;1.10;;;21.20;33.00;;;;;;4982432;28;20915;-65
2021/03/05 05:57:11;;;;;;;4.57;0.98;;;21.20;32.80;;;;;;4980390;28;20773;-65
2021/03/05 05:59:37;;;;;;;4.93;1.00;;;21.20;33.00;;;;;;4988586;28;20807;-65
2021/03/05 06:02:05;;;;;;;4.68;1.00;;;21.20;32.80;;;;;;4985635;28;20387;-64
2021/03/05 06:04:31;;;;;;;4.53;1.20;;;21.30;32.80;;;;;;4992327;28;20885;-64
2021/03/05 06:06:58;;;;;;;2.40;0.80;;;21.30;32.70;;;;;;4993281;28;20800;-65
2021/03/05 06:09:24;;;;;;;5.30;1.00;;;21.30;32.60;;;;;;4991787;28;20430;-64
2021/03/05 06:11:50;;;;;;;5.75;1.05;;;21.40;32.60;;;;;;4993148;28;20425;-64
2021/03/05 06:14:17;;;;;;;6.15;1.00;;;21.30;32.50;;;;;;4992685;28;20415;-64
2021/03/05 06:16:54;;;;;;;7.45;1.20;;;21.30;32.50;;;;;;4993274;28;20387;-65
2021/03/05 06:19:25;;;;;;;4.23;0.93;;;21.30;32.60;;;;;;4993709;28;20399;-65
2021/03/05 06:21:51;;;;;;;6.85;1.20;;;21.30;32.60;;;;;;4995035;28;20379;-64
2021/03/05 06:24:17;;;;;;;5.28;1.20;;;21.30;32.60;;;;;;4995593;28;20395;-65
2021/03/05 06:27:00;;;;;;;3.95;1.13;;;21.20;32.50;;;;;;4994814;28;20882;-66
2021/03/05 06:29:27;;;;;;;3.75;1.13;;;21.20;32.80;;;;;;4994793;28;20383;-65
2021/03/05 06:31:58;;;;;;;2.95;0.95;;;21.20;32.60;;;;;;4994776;28;20755;-65
2021/03/05 06:34:25;;;;;;;6.97;1.10;;;21.10;33.00;;;;;;4994249;28;20394;-66
2021/03/05 06:37:06;;;;;;;2.67;0.90;;;21.10;32.50;;;;;;4994892;28;20401;-65
2021/03/05 06:39:34;;;;;;;3.00;0.93;;;21.10;36.50;;;;;;4994761;28;20397;-66
2021/03/05 06:42:03;;;;;;;2.17;1.10;;;21.20;34.20;;;;;;4993934;28;20399;-63
2021/03/05 06:44:30;;;;;;;3.58;0.85;;;21.30;34.00;;;;;;4993892;28;20406;-64
2021/03/05 06:46:56;;;;;;;3.85;0.90;;;21.40;34.20;;;;;;4994564;28;20472;-64
2021/03/05 06:49:22;;;;;;;2.90;0.90;;;21.40;33.60;;;;;;4994298;28;20871;-64
2021/03/05 06:51:55;;;;;;;2.97;1.20;;;21.30;34.00;;;;;;4994403;28;20436;-63
2021/03/05 06:54:27;;;;;;;3.00;1.02;;;21.20;34.50;;;;;;4993618;28;20390;-63
2021/03/05 06:56:53;;;;;;;4.05;1.25;;;21.30;35.30;;;;;;4994619;28;20398;-63
2021/03/05 06:59:23;;;;;;;6.65;1.40;;;21.30;36.60;;;;;;4993884;28;20966;-64
2021/03/05 07:01:57;;;;;;;3.90;1.23;;;21.30;37.70;;;;;;4994283;28;20407;-64
2021/03/05 07:04:25;;;;;;;3.65;1.08;;;21.30;37.50;;;;;;4993555;28;20383;-63
2021/03/05 07:07:04;;;;;;;3.58;1.30;;;21.30;38.50;;;;;;4993502;28;20398;-63
2021/03/05 07:09:39;;;;;;;5.63;1.67;;;21.30;35.80;;;;;;4993673;28;20390;-63
2021/03/05 07:12:16;;;;;;;5.22;1.60;;;21.30;38.50;;;;;;4994122;28;20394;-63
2021/03/05 07:14:48;;;;;;;5.22;1.48;;;21.30;37.70;;;;;;4993477;28;20399;-62
2021/03/05 07:17:15;;;;;;;5.00;1.75;;;21.30;36.80;;;;;;4993995;28;20405;-63
2021/03/05 07:19:41;;;;;;;4.72;1.30;;;21.30;37.10;;;;;;4993753;28;20410;-64
2021/03/05 07:22:08;;;;;;;4.72;1.40;;;21.30;36.90;;;;;;4993933;28;20387;-63
2021/03/05 07:24:38;;;;;;;6.07;1.53;;;21.30;35.80;;;;;;4993317;28;20542;-63
2021/03/05 07:27:09;;;;;;;7.47;1.95;;;21.30;34.20;;;;;;4993739;28;20399;-63
2021/03/05 07:29:45;;;;;;;5.43;1.50;;;21.30;35.90;;;;;;4993702;28;20383;-63
2021/03/05 07:32:16;;;;;;;5.90;1.50;;;21.20;34.60;;;;;;4993353;28;20398;-63
2021/03/05 07:34:58;;;;;;;4.55;1.50;;;21.20;35.20;;;;;;4993296;28;20920;-63
2021/03/05 07:37:50;;;;;;;3.88;1.70;;;21.20;35.10;;;;;;4993682;28;20457;-63
2021/03/05 07:40:17;;;;;;;5.65;1.83;;;21.20;34.30;;;;;;4993258;28;20394;-63
2021/03/05 07:42:43;;;;;;;5.43;1.83;;;21.20;35.50;;;;;;4993613;28;20387;-64
2021/03/05 07:45:10;;;;;;;5.80;1.73;;;21.20;35.20;;;;;;4993431;28;20513;-63
2021/03/05 07:47:39;;;;;;;4.57;1.80;;;21.20;35.10;;;;;;4993285;28;20394;-64
2021/03/05 07:50:08;;;;;;;6.35;1.52;;;21.20;34.40;;;;;;4993270;28;20398;-64
2021/03/05 07:52:34;;;;;;;4.18;1.50;;;21.20;35.50;;;;;;4992877;28;20398;-63
2021/03/05 07:55:00;;;;;;;7.82;1.70;;;21.20;35.30;;;;;;4993264;28;20395;-63
2021/03/05 07:57:28;;;;;;;8.13;1.83;;;21.20;35.90;;;;;;4992356;28;20386;-63
2021/03/05 07:59:56;;;;;;;6.03;1.70;;;21.20;35.70;;;;;;4992732;28;20402;-63
2021/03/05 08:02:23;;;;;;;4.28;1.60;;;21.20;35.20;;;;;;4992825;28;20827;-63
2021/03/05 08:07:28;;;;;;;7.23;1.67;;;21.10;37.70;;;;;;4992790;28;20437;-63
2021/03/05 08:09:56;;;;;;;5.22;1.73;;;21.20;37.90;;;;;;4992111;28;20430;-63
2021/03/05 08:15:05;;;;;;;4.70;1.48;;;21.20;37.10;;;;;;4992876;28;20448;-64
2021/03/05 08:17:32;;;;;;;5.78;1.30;;;21.20;36.10;;;;;;4992803;28;20823;-64
2021/03/05 08:19:57;;;;;;;3.05;1.33;;;21.20;36.00;;;;;;4992611;28;20863;-64
2021/03/05 08:22:23;;;;;;;5.63;1.60;;;21.10;37.10;;;;;;4991753;28;20410;-63
2021/03/05 08:24:49;;;;;;;3.13;1.40;;;21.10;36.20;;;;;;4992751;28;20437;-64
2021/03/05 08:27:35;;;;;;;3.33;1.45;;;21.10;35.70;;;;;;4992757;28;20390;-63
2021/03/05 08:30:04;;;;;;;4.57;1.40;;;21.10;35.40;;;;;;4992620;28;20886;-63
2021/03/05 08:32:37;;;;;;;3.72;1.55;;;21.00;35.10;;;;;;4992024;28;20378;-63
2021/03/05 08:35:15;;;;;;;2.33;1.30;;;21.00;35.10;;;;;;4992668;28;20743;-63
2021/03/05 08:37:47;;;;;;;3.28;1.20;;;21.00;35.60;;;;;;4992393;28;20429;-63
2021/03/05 08:40:13;;;;;;;4.90;1.40;;;21.00;35.40;;;;;;4992583;28;20406;-63
2021/03/05 08:42:40;;;;;;;3.58;1.20;;;21.00;35.90;;;;;;4990897;28;20414;-63
2021/03/05 08:45:12;;;;;;;3.13;1.30;;;21.00;35.00;;;;;;4992081;28;20418;-63
2021/03/05 08:47:41;;;;;;;4.50;1.20;;;20.90;35.40;;;;;;4991439;28;20387;-63
2021/03/05 08:50:08;;;;;;;4.25;1.40;;;20.90;35.50;;;;;;4992337;28;20404;-62
2021/03/05 08:52:34;;;;;;;2.45;1.02;;;20.90;35.30;;;;;;4991466;28;20953;-63
2021/03/05 08:55:04;;;;;;;4.38;1.10;;;20.90;35.20;;;;;;4992157;28;20391;-62
2021/03/05 08:57:41;;;;;;;6.70;1.38;;;21.00;34.80;;;;;;4991980;28;20914;-63
2021/03/05 09:00:10;;;;;;;5.57;1.40;;;21.00;34.90;;;;;;4992176;28;20883;-63
2021/03/05 09:02:36;;;;;;;6.60;1.20;;;21.00;34.80;;;;;;4991559;28;20382;-63
2021/03/05 09:05:02;;;;;;;5.00;1.13;;;21.00;34.60;;;;;;4991840;28;20418;-62
2021/03/05 09:07:29;;;;;;;7.72;1.38;;;20.90;35.10;;;;;;4992114;28;20402;-63
2021/03/05 09:09:55;;;;;;;8.20;1.30;;;20.90;35.30;;;;;;4991501;28;20867;-61
2021/03/05 09:12:25;;;;;;;7.67;1.40;;;20.90;35.30;;;;;;4991040;28;20397;-63
2021/03/05 09:15:02;;;;;;;6.20;1.33;;;20.90;35.20;;;;;;4991792;28;20394;-63
2021/03/05 09:17:28;;;;;;;6.45;1.30;;;20.90;35.00;;;;;;4990413;28;20760;-63
2021/03/05 09:19:53;;;;;;;4.80;1.20;;;20.90;35.10;;;;;;4990853;28;20382;-63
2021/03/05 09:22:24;;;;;;;6.18;1.17;;;20.90;35.00;;;;;;4991765;28;20430;-63
2021/03/05 09:25:00;;;;;;;7.05;1.30;;;20.90;34.90;;;;;;4995996;28;20418;-63
2021/03/05 09:27:32;;;;;;;5.97;1.40;;;20.90;34.80;;;;;;4995891;28;20465;-63
2021/03/05 09:29:59;;;;;;;4.28;1.02;;;20.80;34.70;;;;;;4995987;28;20403;-63
2021/03/05 09:32:26;;;;;;;5.00;1.23;;;20.80;34.50;;;;;;4995429;28;20386;-63
2021/03/05 09:34:54;;;;;;;3.70;1.05;;;20.80;34.40;;;;;;4995820;28;20425;-63
2021/03/05 09:37:28;;;;;;;4.13;0.93;;;20.80;34.20;;;;;;4995170;28;20449;-63
2021/03/05 09:39:57;;;;;;;3.45;1.10;;;20.80;34.10;;;;;;4994363;28;20757;-63
2021/03/05 09:42:42;;;;;;;3.72;1.15;;;20.80;34.10;;;;;;4995395;28;20481;-62
2021/03/05 09:45:09;;;;;;;4.77;1.07;;;20.80;34.00;;;;;;4995448;28;20446;-63
2021/03/05 09:47:50;;;;;;;2.22;0.90;;;20.80;34.00;;;;;;4995594;28;20716;-63
2021/03/05 09:50:21;;;;;;;2.97;1.10;;;20.80;33.90;;;;;;4995613;28;20393;-64
2021/03/05 09:52:47;;;;;;;3.17;1.00;;;20.80;33.90;;;;;;4995437;28;20893;-64
2021/03/05 09:55:30;;;;;;;2.92;0.98;;;20.80;33.90;;;;;;4995507;28;20859;-63
2021/03/05 09:58:12;;;;;;;2.63;1.10;;;20.80;33.80;;;;;;4995455;28;20970;-62
2021/03/05 10:00:38;;;;;;;2.77;1.07;;;20.80;33.80;;;;;;4994795;28;20689;-63
2021/03/05 10:03:08;;;;;;;3.80;1.38;;;20.80;33.80;;;;;;4995031;28;20393;-63
2021/03/05 10:05:36;;;;;;;2.92;0.90;;;20.80;33.70;;;;;;4995320;28;20422;-62
2021/03/05 10:08:13;;;;;;;2.10;0.90;;;20.80;33.70;;;;;;4993995;28;20409;-62
2021/03/05 10:10:58;;;;;;;2.13;0.95;;;20.80;33.70;;;;;;4994721;28;20743;-62
2021/03/05 10:13:51;;;;;;;3.00;1.00;;;20.80;33.70;;;;;;4995178;28;20885;-63
2021/03/05 10:16:18;;;;;;;1.73;0.95;;;20.80;33.70;;;;;;4995083;28;20390;-62
2021/03/05 10:18:46;;;;;;;2.30;0.80;;;20.80;33.60;;;;;;4994926;28;20737;-62
2021/03/05 10:21:13;;;;;;;2.15;0.90;;;20.80;33.60;;;;;;4995034;28;20406;-62
2021/03/05 10:23:39;;;;;;;2.13;0.90;;;20.80;33.60;;;;;;4993750;28;20403;-62
2021/03/05 10:26:12;;;;;;;2.17;0.70;;;20.80;33.60;;;;;;4994911;28;20482;-62
2021/03/05 10:28:39;;;;;;;1.97;0.90;;;20.70;33.50;;;;;;4994310;28;20415;-62
2021/03/05 10:31:05;;;;;;;2.17;0.90;;;20.70;33.50;;;;;;4994926;28;20398;-62
2021/03/05 10:33:49;;;;;;;1.77;0.80;;;20.80;33.50;;;;;;4993441;28;20891;-63
2021/03/05 10:36:16;;;;;;;1.90;0.73;;;20.80;33.50;;;;;;4993957;28;20794;-62
2021/03/05 10:38:43;;;;;;;2.25;0.90;;;20.80;33.50;;;;;;4992883;28;20724;-63
2021/03/05 10:41:09;;;;;;;1.55;0.70;;;20.70;33.40;;;;;;4994757;28;20395;-63
2021/03/05 10:43:37;;;;;;;2.40;0.80;;;20.80;33.40;;;;;;4994601;28;20398;-63
2021/03/05 10:46:03;;;;;;;1.20;0.75;;;20.70;33.30;;;;;;4994565;28;20422;-62
2021/03/05 10:48:29;;;;;;;2.40;0.70;;;20.80;33.30;;;;;;4994064;28;20933;-63
2021/03/05 10:50:55;;;;;;;1.37;0.80;;;20.70;33.30;;;;;;4994605;28;20402;-62
2021/03/05 10:53:21;;;;;;;1.50;0.85;;;20.80;33.30;;;;;;4994456;28;20425;-64
2021/03/05 10:55:47;;;;;;;1.33;0.65;;;20.80;33.30;;;;;;4994589;28;20405;-63
2021/03/05 10:58:12;;;;;;;1.73;0.80;;;20.70;33.20;;;;;;4994352;28;20486;-63
2021/03/05 11:00:38;;;;;;;1.40;0.70;;;20.80;33.30;;;;;;4993943;28;20472;-63
2021/03/05 11:03:04;;;;;;;1.42;0.60;;;20.80;33.30;;;;;;4994347;28;20390;-63
2021/03/05 11:05:30;;;;;;;1.75;0.77;;;20.80;33.90;;;;;;4993783;28;20425;-63
2021/03/05 11:07:55;;;;;;;1.50;0.60;;;20.70;33.20;;;;;;4993718;28;20391;-63
2021/03/05 11:10:23;;;;;;;1.40;0.80;;;20.70;33.20;;;;;;4994101;28;20425;-62
2021/03/05 11:12:49;;;;;;;1.35;0.75;;;20.70;33.10;;;;;;4993728;28;20403;-63
2021/03/05 11:15:18;;;;;;;1.60;0.80;;;20.70;33.10;;;;;;4994133;28;20402;-63
2021/03/05 11:17:44;;;;;;;1.63;0.80;;;20.70;33.10;;;;;;4993838;28;20541;-63
2021/03/05 11:20:10;;;;;;;3.67;1.38;;;20.70;33.10;;;;;;4993968;28;20390;-63
2021/03/05 11:22:36;;;;;;;3.07;1.40;;;20.80;32.90;;;;;;4993342;28;20453;-63
2021/03/05 11:25:04;;;;;;;3.88;1.25;;;20.80;33.20;;;;;;4993842;28;20429;-62
2021/03/05 11:27:32;;;;;;;4.13;1.25;;;20.70;33.20;;;;;;4993765;28;20394;-62
2021/03/05 11:29:58;;;;;;;3.20;1.45;;;20.90;33.00;;;;;;4993860;28;20385;-62
2021/03/05 11:32:23;;;;;;;3.30;1.50;;;20.90;32.60;;;;;;4993380;28;20393;-62
2021/03/05 11:34:49;;;;;;;2.65;1.50;;;21.00;32.80;;;;;;4988223;28;20422;-62
2021/03/05 11:37:15;;;;;;;5.60;1.70;;;21.00;33.10;;;;;;4977811;28;20390;-62
2021/03/05 11:39:40;;;;;;;5.47;1.60;;;21.00;33.90;;;;;;4979587;28;20479;-64
2021/03/05 11:42:06;;;;;;;8.73;1.67;;;21.10;33.90;;;;;;4976322;28;20757;-62
2021/03/05 11:44:32;;;;;;;5.43;1.67;;;21.10;34.50;;;;;;4992922;28;20900;-64
2021/03/05 11:46:58;;;;;;;8.63;1.70;;;21.10;36.10;;;;;;4993400;28;20456;-64
2021/03/05 11:49:23;;;;;;;7.40;1.90;;;21.20;36.30;;;;;;4993451;28;20387;-64
2021/03/05 11:51:49;;;;;;;6.57;1.80;;;21.30;36.50;;;;;;4989812;28;20902;-64
2021/03/05 11:54:15;;;;;;;6.40;1.70;;;21.30;36.40;;;;;;4993105;28;21037;-62
2021/03/05 11:56:40;;;;;;;7.55;1.75;;;21.40;36.70;;;;;;4991596;28;20786;-63
2021/03/05 11:59:06;;;;;;;9.38;1.50;;;21.40;36.70;;;;;;4983732;28;20402;-64
2021/03/05 12:01:33;;;;;;;8.77;1.70;;;21.30;36.30;;;;;;4980700;28;21235;-61
2021/03/05 12:03:58;;;;;;;7.70;1.58;;;21.30;36.90;;;;;;4981367;28;20400;-64
2021/03/05 12:06:26;;;;;;;7.40;1.60;;;21.40;37.00;;;;;;4976218;28;20498;-62
2021/03/05 12:08:52;;;;;;;6.50;1.50;;;21.40;37.30;;;;;;4982455;28;20410;-63
2021/03/05 12:11:18;;;;;;;10.63;1.60;;;21.40;36.70;;;;;;5000498;28;20465;-63
2021/03/05 12:13:44;;;;;;;5.25;1.83;;;21.40;37.00;;;;;;4984256;28;20457;-63
2021/03/05 12:16:09;;;;;;;6.63;1.90;;;21.40;37.00;;;;;;4982111;28;20434;-63
2021/03/05 12:18:35;;;;;;;3.78;1.70;;;21.40;37.30;;;;;;4981115;28;20721;-64
2021/03/05 12:21:00;;;;;;;6.73;1.50;;;21.40;37.30;;;;;;4980899;28;20818;-64
2021/03/05 12:23:27;;;;;;;7.35;1.80;;;21.40;37.30;;;;;;4982937;28;20395;-64
2021/03/05 12:25:53;;;;;;;4.68;1.40;;;21.40;36.70;;;;;;4985272;28;20894;-63
2021/03/05 12:28:19;;;;;;;7.70;1.80;;;21.50;37.80;;;;;;4983290;28;20483;-63
2021/03/05 12:30:44;;;;;;;5.40;1.90;;;21.40;36.50;;;;;;4979897;28;20424;-62
2021/03/05 12:33:10;;;;;;;13.60;1.90;;;21.30;36.50;;;;;;4985122;28;20402;-63
2021/03/05 12:35:36;;;;;;;11.70;2.20;;;21.30;36.30;;;;;;4980043;28;20418;-64
2021/03/05 12:38:02;;;;;;;4.03;1.30;;;21.40;36.20;;;;;;4981185;28;20407;-63
2021/03/05 12:40:28;;;;;;;4.18;1.60;;;21.40;36.30;;;;;;4984577;28;20402;-64
2021/03/05 12:42:56;;;;;;;8.77;1.80;;;21.30;36.10;;;;;;4979770;28;20765;-63
2021/03/05 12:45:22;;;;;;;7.25;1.73;;;21.30;35.90;;;;;;4982650;28;20426;-64
2021/03/05 12:47:47;;;;;;;4.05;1.60;;;21.30;35.70;;;;;;4980191;28;20418;-63
2021/03/05 12:50:13;;;;;;;2.47;1.45;;;21.30;35.80;;;;;;4981524;28;20414;-63
2021/03/05 12:52:39;;;;;;;5.40;1.57;;;21.30;35.90;;;;;;4982103;28;20528;-63
2021/03/05 12:55:05;;;;;;;3.13;1.40;;;21.30;35.90;;;;;;4984815;28;20394;-63
2021/03/05 12:57:31;;;;;;;3.88;1.40;;;21.30;35.80;;;;;;4979309;28;20408;-63
2021/03/05 12:59:57;;;;;;;4.20;1.60;;;21.40;35.30;;;;;;4980709;28;20410;-63